createdAt,value
2023-05-11T00:00:44.487Z,10.11
2023-05-11T00:03:50.819Z,10.22
2023-05-11T00:06:57.466Z,10.14
2023-05-11T00:10:03.612Z,9.65
2023-05-11T00:13:11.158Z,9.35
2023-05-11T00:16:17.127Z,9.67
2023-05-11T00:19:23.417Z,9.86
2023-05-11T00:22:30.046Z,10.03
2023-05-11T00:25:36.149Z,10.20
2023-05-11T00:28:43.262Z,10.06
2023-05-11T00:31:50.312Z,10.08
2023-05-11T00:34:56.268Z,10.15
2023-05-11T00:38:02.362Z,10.10
2023-05-11T00:41:08.873Z,9.60
2023-05-11T00:44:16.539Z,9.63
2023-05-11T00:47:22.752Z,9.73
2023-05-11T00:50:29.389Z,9.92
2023-05-11T00:53:35.496Z,9.98
2023-05-11T00:56:41.949Z,9.57
2023-05-11T00:59:50.688Z,9.34
2023-05-11T01:02:59.129Z,9.69
2023-05-11T01:06:11.788Z,9.69
2023-05-11T01:09:33.532Z,9.98
2023-05-11T01:12:49.312Z,9.89
2023-05-11T01:15:57.430Z,9.65
2023-05-11T01:19:12.494Z,9.74
2023-05-11T01:22:32.444Z,9.45
2023-05-11T01:26:03.868Z,9.96
2023-05-11T01:29:29.938Z,9.92
2023-05-11T01:32:41.645Z,9.42
2023-05-11T01:35:55.094Z,9.51
2023-05-11T01:39:04.762Z,9.59
2023-05-11T01:42:11.682Z,9.48
2023-05-11T01:45:20.194Z,9.80
2023-05-11T01:48:32.127Z,9.65
2023-05-11T01:51:39.940Z,9.72
2023-05-11T01:54:48.771Z,9.20
2023-05-11T01:57:57.221Z,9.46
2023-05-11T02:01:04.713Z,9.09
2023-05-11T02:04:14.550Z,9.35
2023-05-11T02:07:22.095Z,9.79
2023-05-11T02:10:29.256Z,9.36
2023-05-11T02:13:37.713Z,9.43
2023-05-11T02:16:45.950Z,9.54
2023-05-11T02:19:54.959Z,9.15
2023-05-11T02:23:02.303Z,9.53
2023-05-11T02:26:09.843Z,9.50
2023-05-11T02:29:16.109Z,9.76
2023-05-11T02:32:25.893Z,9.99
2023-05-11T02:35:37.202Z,10.04
2023-05-11T02:38:45.203Z,9.66
2023-05-11T02:41:57.655Z,10.04
2023-05-11T02:45:09.105Z,10.30
2023-05-11T02:48:26.611Z,10.33
2023-05-11T02:51:37.795Z,9.71
2023-05-11T02:54:44.523Z,9.78
2023-05-11T02:57:50.997Z,10.14
2023-05-11T03:00:57.622Z,10.06
2023-05-11T03:04:05.867Z,10.17
2023-05-11T03:07:13.585Z,9.62
2023-05-11T03:10:20.100Z,9.76
2023-05-11T03:13:27.242Z,9.71
2023-05-11T03:16:34.618Z,9.12
2023-05-11T03:19:42.760Z,9.57
2023-05-11T03:22:51.270Z,9.72
2023-05-11T03:25:58.920Z,10.01
2023-05-11T03:29:05.856Z,9.97
2023-05-11T03:32:12.057Z,9.98
2023-05-11T03:35:18.852Z,9.62
2023-05-11T03:38:30.894Z,9.26
2023-05-11T03:41:40.534Z,9.70
2023-05-11T03:44:49.626Z,9.82
2023-05-11T03:47:57.704Z,9.89
2023-05-11T03:51:05.915Z,9.54
2023-05-11T03:54:14.360Z,9.74
2023-05-11T03:57:20.178Z,10.13
2023-05-11T04:00:26.104Z,10.02
2023-05-11T04:03:32.122Z,9.96
2023-05-11T04:06:38.191Z,10.08
2023-05-11T04:09:45.547Z,9.91
2023-05-11T04:12:53.094Z,9.63
2023-05-11T04:15:59.480Z,9.87
2023-05-11T04:19:06.534Z,9.89
2023-05-11T04:22:13.307Z,9.87
2023-05-11T04:25:21.110Z,10.23
2023-05-11T04:28:28.098Z,10.15
2023-05-11T04:31:34.936Z,9.97
2023-05-11T04:34:42.846Z,9.71
2023-05-11T04:37:48.824Z,9.76
2023-05-11T04:40:56.106Z,10.12
2023-05-11T04:44:02.253Z,9.93
2023-05-11T04:47:08.440Z,10.32
2023-05-11T04:50:14.945Z,10.40
2023-05-11T04:53:20.912Z,10.41
2023-05-11T04:56:28.279Z,10.57
2023-05-11T04:59:34.767Z,10.52
2023-05-11T05:02:41.032Z,10.45
2023-05-11T05:05:47.135Z,10.45
2023-05-11T05:08:53.219Z,10.56
2023-05-11T05:12:01.725Z,10.64
2023-05-11T05:15:09.288Z,10.74
2023-05-11T05:18:15.213Z,11.08
2023-05-11T05:21:21.325Z,10.70
2023-05-11T05:24:27.393Z,11.18
2023-05-11T05:27:35.234Z,10.97
2023-05-11T05:30:41.606Z,10.97
2023-05-11T05:33:47.504Z,11.05
2023-05-11T05:36:53.780Z,11.24
2023-05-11T05:40:00.270Z,11.07
2023-05-11T05:43:07.664Z,11.17
2023-05-11T05:46:14.165Z,11.20
2023-05-11T05:49:20.166Z,10.97
2023-05-11T05:52:26.542Z,11.13
2023-05-11T05:55:32.515Z,11.18
2023-05-11T05:58:39.796Z,11.14
2023-05-11T06:01:47.574Z,10.98
2023-05-11T06:04:53.896Z,10.72
2023-05-11T06:08:09.665Z,10.98
2023-05-11T06:11:17.332Z,10.71
2023-05-11T06:14:25.046Z,11.19
2023-05-11T06:17:31.628Z,11.27
2023-05-11T06:20:37.651Z,11.44
2023-05-11T06:23:44.315Z,11.34
2023-05-11T06:26:50.205Z,10.95
2023-05-11T06:29:57.696Z,11.47
2023-05-11T06:33:03.739Z,11.55
2023-05-11T06:36:10.199Z,11.52
2023-05-11T06:39:16.366Z,11.51
2023-05-11T06:42:23.687Z,11.19
2023-05-11T06:45:31.161Z,11.66
2023-05-11T06:48:37.322Z,11.36
2023-05-11T06:51:43.548Z,11.63
2023-05-11T06:54:49.486Z,11.44
2023-05-11T06:57:55.814Z,11.64
2023-05-11T07:01:05.924Z,11.71
2023-05-11T07:04:12.087Z,11.82
2023-05-11T07:07:18.363Z,11.88
2023-05-11T07:10:24.628Z,11.59
2023-05-11T07:13:31.025Z,12.03
2023-05-11T07:16:38.824Z,12.22
2023-05-11T07:19:45.473Z,12.19
2023-05-11T07:22:51.877Z,11.77
2023-05-11T07:25:58.293Z,12.18
2023-05-11T07:29:04.422Z,12.46
2023-05-11T07:32:11.865Z,12.37
2023-05-11T07:35:18.397Z,13.35
2023-05-11T07:38:24.398Z,13.14
2023-05-11T07:41:30.996Z,13.39
2023-05-11T07:44:37.155Z,12.87
2023-05-11T07:47:45.285Z,12.55
2023-05-11T07:50:51.565Z,12.22
2023-05-11T07:53:57.842Z,12.75
2023-05-11T07:57:05.162Z,12.50
2023-05-11T08:00:12.607Z,12.69
2023-05-11T08:03:20.423Z,12.86
2023-05-11T08:06:26.679Z,13.33
2023-05-11T08:09:33.027Z,12.75
2023-05-11T08:12:39.757Z,12.39
2023-05-11T08:15:45.729Z,12.78
2023-05-11T08:18:53.387Z,12.30
2023-05-11T08:21:59.787Z,12.93
2023-05-11T08:25:06.492Z,11.77
2023-05-11T08:28:12.666Z,12.02
2023-05-11T08:31:18.986Z,12.02
2023-05-11T08:34:26.702Z,12.21
2023-05-11T08:37:32.746Z,12.57
2023-05-11T08:40:40.359Z,11.96
2023-05-11T08:43:47.601Z,12.22
2023-05-11T08:47:08.581Z,12.87
2023-05-11T08:50:23.819Z,12.59
2023-05-11T08:53:29.835Z,12.76
2023-05-11T08:56:37.624Z,12.60
2023-05-11T08:59:46.387Z,12.45
2023-05-11T09:02:53.707Z,11.64
2023-05-11T09:06:02.449Z,12.43
2023-05-11T09:09:10.264Z,12.01
2023-05-11T09:12:18.036Z,12.01
2023-05-11T09:15:24.571Z,12.15
2023-05-11T09:18:31.058Z,12.23
2023-05-11T09:21:40.091Z,12.83
2023-05-11T09:24:46.605Z,12.52
2023-05-11T09:27:53.692Z,12.22
2023-05-11T09:31:00.443Z,12.94
2023-05-11T09:34:11.804Z,13.47
2023-05-11T09:37:20.356Z,13.40
2023-05-11T09:40:27.596Z,13.39
2023-05-11T09:43:33.796Z,13.08
2023-05-11T09:46:40.711Z,13.92
2023-05-11T09:49:48.178Z,13.86
2023-05-11T09:52:56.006Z,13.93
2023-05-11T09:56:02.595Z,14.12
2023-05-11T09:59:08.828Z,13.85
2023-05-11T10:02:24.067Z,13.54
2023-05-11T10:05:32.568Z,12.57
2023-05-11T10:08:40.689Z,13.16
2023-05-11T10:11:48.160Z,14.82
2023-05-11T10:14:57.306Z,14.14
2023-05-11T10:18:03.688Z,14.53
2023-05-11T10:21:10.357Z,14.21
2023-05-11T10:24:20.407Z,13.95
2023-05-11T10:27:29.175Z,14.32
2023-05-11T10:30:37.305Z,14.54
2023-05-11T10:33:44.590Z,13.76
2023-05-11T10:36:53.370Z,14.76
2023-05-11T10:40:01.200Z,14.32
2023-05-11T10:43:44.384Z,14.43
2023-05-11T10:47:10.831Z,14.22
2023-05-11T10:50:37.798Z,14.62
2023-05-11T10:53:59.689Z,14.69
2023-05-11T10:57:16.883Z,14.67
2023-05-11T11:01:14.157Z,15.08
2023-05-11T11:04:20.622Z,15.15
2023-05-11T11:07:26.725Z,15.63
2023-05-11T11:10:34.802Z,15.11
2023-05-11T11:14:01.928Z,15.57
2023-05-11T11:17:25.119Z,16.05
2023-05-11T11:20:50.867Z,15.68
2023-05-11T11:23:57.049Z,14.83
2023-05-11T11:27:03.224Z,15.11
2023-05-11T11:30:19.528Z,15.32
2023-05-11T11:33:35.782Z,16.52
2023-05-11T11:37:06.453Z,14.53
2023-05-11T11:40:15.741Z,15.64
2023-05-11T11:43:24.802Z,16.33
2023-05-11T11:46:32.179Z,15.74
2023-05-11T11:49:39.387Z,15.41
2023-05-11T11:52:45.582Z,14.90
2023-05-11T11:55:52.771Z,14.65
2023-05-11T11:58:59.875Z,15.61
2023-05-11T12:02:09.071Z,16.19
2023-05-11T12:05:18.956Z,16.38
2023-05-11T12:08:27.811Z,16.16
2023-05-11T12:11:34.470Z,14.93
2023-05-11T12:14:49.006Z,15.79
2023-05-11T12:17:57.647Z,15.50
2023-05-11T12:21:04.198Z,16.03
2023-05-11T12:24:13.269Z,16.12
2023-05-11T12:27:19.873Z,15.03
2023-05-11T12:30:28.117Z,15.36
2023-05-11T12:33:45.797Z,15.98
2023-05-11T12:36:53.504Z,15.71
2023-05-11T12:40:00.466Z,15.80
2023-05-11T12:43:06.954Z,16.39
2023-05-11T12:46:13.528Z,15.09
2023-05-11T12:52:30.874Z,15.23
2023-05-11T12:55:37.297Z,15.46
2023-05-11T12:58:43.681Z,15.63
2023-05-11T13:01:49.807Z,15.48
2023-05-11T13:04:57.230Z,14.93
2023-05-11T13:08:04.770Z,14.89
2023-05-11T13:11:22.486Z,15.27
2023-05-11T13:14:32.473Z,14.81
2023-05-11T13:17:39.418Z,15.51
2023-05-11T13:20:46.775Z,15.01
2023-05-11T13:23:54.520Z,14.65
2023-05-11T13:27:00.979Z,14.37
2023-05-11T13:30:08.497Z,15.11
2023-05-11T13:33:14.572Z,15.09
2023-05-11T13:36:23.183Z,15.46
2023-05-11T13:39:29.326Z,15.19
2023-05-11T13:42:35.437Z,14.73
2023-05-11T13:45:41.887Z,15.36
2023-05-11T13:48:47.918Z,15.95
2023-05-11T13:51:55.671Z,15.25
2023-05-11T13:55:01.866Z,15.74
2023-05-11T13:58:08.399Z,15.85
2023-05-11T14:01:14.526Z,15.81
2023-05-11T14:04:20.616Z,15.19
2023-05-11T14:07:39.118Z,15.17
2023-05-11T14:10:53.191Z,15.65
2023-05-11T14:13:59.284Z,15.66
2023-05-11T14:17:05.525Z,15.29
2023-05-11T14:20:12.813Z,15.75
2023-05-11T14:23:20.700Z,15.46
2023-05-11T14:26:26.807Z,15.48
2023-05-11T14:29:32.829Z,15.95
2023-05-11T14:32:38.896Z,15.18
2023-05-11T14:35:45.723Z,16.16
2023-05-11T14:38:53.494Z,15.84
2023-05-11T14:41:59.741Z,15.97
2023-05-11T14:45:07.072Z,15.98
2023-05-11T14:48:13.334Z,15.54
2023-05-11T14:51:21.963Z,15.57
2023-05-11T14:54:29.518Z,14.95
2023-05-11T14:57:35.789Z,15.76
2023-05-11T15:00:42.110Z,15.84
2023-05-11T15:03:48.179Z,15.59
2023-05-11T15:06:54.173Z,14.83
2023-05-11T15:10:02.351Z,14.76
2023-05-11T15:13:10.569Z,14.63
2023-05-11T15:16:17.078Z,14.70
2023-05-11T15:19:23.312Z,14.29
2023-05-11T15:22:29.299Z,14.64
2023-05-11T15:25:36.960Z,14.15
2023-05-11T15:28:43.024Z,14.52
2023-05-11T15:31:49.258Z,14.40
2023-05-11T15:34:59.684Z,14.47
2023-05-11T15:38:06.800Z,13.83
2023-05-11T15:41:14.641Z,14.13
2023-05-11T15:44:20.890Z,13.89
2023-05-11T15:47:27.350Z,13.64
2023-05-11T15:50:33.804Z,13.61
2023-05-11T15:53:39.706Z,13.52
2023-05-11T15:56:47.314Z,14.19
2023-05-11T15:59:53.300Z,14.05
2023-05-11T16:02:59.251Z,13.89
2023-05-11T16:06:06.235Z,13.65
2023-05-11T16:09:12.602Z,13.41
2023-05-11T16:12:19.897Z,13.34
2023-05-11T16:15:26.594Z,13.50
2023-05-11T16:18:32.592Z,12.95
2023-05-11T16:21:38.820Z,12.97
2023-05-11T16:24:45.261Z,12.93
2023-05-11T16:27:52.950Z,12.83
2023-05-11T16:30:59.529Z,12.71
2023-05-11T16:34:05.801Z,12.76
2023-05-11T16:37:11.625Z,12.56
2023-05-11T16:40:19.733Z,11.79
2023-05-11T16:43:27.265Z,11.67
2023-05-11T16:46:33.635Z,12.04
2023-05-11T16:49:40.059Z,12.50
2023-05-11T16:52:46.073Z,12.63
2023-05-11T16:55:52.222Z,11.93
2023-05-11T16:58:59.668Z,12.29
2023-05-11T17:02:07.561Z,12.01
2023-05-11T17:05:14.519Z,11.86
2023-05-11T17:08:20.798Z,11.95
2023-05-11T17:11:27.051Z,11.48
2023-05-11T17:14:34.324Z,11.72
2023-05-11T17:17:41.345Z,12.14
2023-05-11T17:20:53.437Z,11.63
2023-05-11T17:23:59.770Z,11.99
2023-05-11T17:27:06.280Z,11.38
2023-05-11T17:30:14.495Z,11.55
2023-05-11T17:33:21.032Z,11.66
2023-05-11T17:36:29.461Z,11.97
2023-05-11T17:39:35.838Z,11.65
2023-05-11T17:42:42.184Z,11.95
2023-05-11T17:45:50.282Z,11.74
2023-05-11T17:48:56.848Z,11.32
2023-05-11T17:52:03.472Z,11.43
2023-05-11T17:55:11.111Z,11.43
2023-05-11T17:58:17.353Z,11.74
2023-05-11T18:01:25.418Z,11.51
2023-05-11T18:04:31.845Z,11.32
2023-05-11T18:07:37.908Z,11.45
2023-05-11T18:10:44.471Z,10.93
2023-05-11T18:13:51.137Z,11.13
2023-05-11T18:16:58.669Z,11.09
2023-05-11T18:20:06.401Z,10.77
2023-05-11T18:23:12.697Z,10.85
2023-05-11T18:26:20.244Z,11.01
2023-05-11T18:29:27.121Z,10.80
2023-05-11T18:32:34.891Z,10.86
2023-05-11T18:35:42.299Z,10.93
2023-05-11T18:38:49.423Z,11.08
2023-05-11T18:41:56.019Z,11.01
2023-05-11T18:45:02.254Z,10.71
2023-05-11T18:48:10.017Z,10.75
2023-05-11T18:51:19.008Z,11.10
2023-05-11T18:54:25.566Z,11.02
2023-05-11T18:57:34.158Z,10.96
2023-05-11T19:00:40.671Z,10.81
2023-05-11T19:03:48.209Z,11.05
2023-05-11T19:06:54.588Z,10.86
2023-05-11T19:10:00.880Z,10.89
2023-05-11T19:13:07.021Z,10.93
2023-05-11T19:16:13.026Z,10.72
2023-05-11T19:19:20.590Z,10.76
2023-05-11T19:22:26.838Z,11.08
2023-05-11T19:25:33.092Z,10.90
2023-05-11T19:28:39.430Z,10.94
2023-05-11T19:31:46.063Z,11.08
2023-05-11T19:34:54.053Z,10.73
2023-05-11T19:38:00.280Z,11.14
2023-05-11T19:41:06.975Z,11.03
2023-05-11T19:44:13.418Z,10.74
2023-05-11T19:47:19.545Z,10.49
2023-05-11T19:50:27.804Z,10.80
2023-05-11T19:53:34.397Z,10.69
2023-05-11T19:56:40.553Z,10.79
2023-05-11T19:59:46.717Z,10.95
2023-05-11T20:02:52.965Z,11.06
2023-05-11T20:06:00.389Z,10.63
2023-05-11T20:09:07.336Z,10.35
2023-05-11T20:12:13.131Z,10.57
2023-05-11T20:15:19.836Z,10.71
2023-05-11T20:18:28.225Z,10.88
2023-05-11T20:21:36.452Z,10.89
2023-05-11T20:24:42.320Z,10.54
2023-05-11T20:27:48.309Z,10.33
2023-05-11T20:30:54.357Z,10.38
2023-05-11T20:37:11.242Z,10.49
2023-05-11T20:40:18.661Z,10.43
2023-05-11T20:43:26.142Z,10.47
2023-05-11T20:46:32.524Z,10.31
2023-05-11T20:49:39.518Z,10.56
2023-05-11T20:52:47.178Z,10.38
2023-05-11T20:55:53.320Z,9.96
2023-05-11T20:58:59.601Z,10.12
2023-05-11T21:02:06.501Z,10.15
2023-05-11T21:05:13.002Z,10.46
2023-05-11T21:08:20.682Z,10.17
2023-05-11T21:11:27.444Z,10.20
2023-05-11T21:14:33.906Z,9.73
2023-05-11T21:17:40.154Z,9.78
2023-05-11T21:20:46.212Z,9.61
2023-05-11T21:23:53.647Z,10.29
2023-05-11T21:26:59.947Z,10.18
2023-05-11T21:30:07.008Z,10.33
2023-05-11T21:33:13.396Z,10.38
2023-05-11T21:36:19.586Z,10.28
2023-05-11T21:39:26.987Z,9.93
2023-05-11T21:42:36.173Z,9.88
2023-05-11T21:45:42.574Z,9.92
2023-05-11T21:48:48.820Z,9.97
2023-05-11T21:51:54.943Z,9.87
2023-05-11T21:55:02.503Z,10.11
2023-05-11T21:58:09.073Z,9.77
2023-05-11T22:01:15.210Z,9.97
2023-05-11T22:04:21.851Z,9.88
2023-05-11T22:07:28.056Z,9.78
2023-05-11T22:10:35.794Z,10.15
2023-05-11T22:13:44.808Z,9.79
2023-05-11T22:16:51.259Z,9.78
2023-05-11T22:19:57.582Z,9.97
2023-05-11T22:23:04.650Z,9.59
2023-05-11T22:26:12.496Z,9.66
2023-05-11T22:29:19.089Z,10.13
2023-05-11T22:32:25.459Z,9.97
2023-05-11T22:35:31.357Z,10.06
2023-05-11T22:38:38.280Z,9.85
2023-05-11T22:41:46.233Z,9.66
2023-05-11T22:44:52.476Z,9.75
2023-05-11T22:47:58.761Z,9.83
2023-05-11T22:51:06.483Z,9.91
2023-05-11T22:54:13.387Z,9.76
2023-05-11T22:57:20.865Z,9.67
2023-05-11T23:00:27.570Z,9.48
2023-05-11T23:03:33.788Z,9.76
2023-05-11T23:06:39.815Z,9.84
2023-05-11T23:09:46.107Z,9.92
2023-05-11T23:12:53.563Z,9.70
2023-05-11T23:15:59.730Z,10.05
2023-05-11T23:19:05.898Z,10.16
2023-05-11T23:22:12.033Z,9.50
2023-05-11T23:25:18.529Z,9.80
2023-05-11T23:28:26.390Z,9.94
2023-05-11T23:31:32.787Z,9.80
2023-05-11T23:34:39.391Z,9.74
2023-05-11T23:37:45.374Z,9.90
2023-05-11T23:40:52.552Z,10.04
2023-05-11T23:44:00.678Z,9.57
2023-05-11T23:47:07.185Z,9.86
2023-05-11T23:50:14.152Z,9.72
2023-05-11T23:53:20.337Z,9.40
2023-05-11T23:56:26.494Z,9.26
2023-05-11T23:59:33.816Z,9.73
